Flight Track Log - Related Links

Times and Time Zones

All times are in EDT time to prevent confusion due to time zone crossing. See the N7824C flight status page for this flight to view local times or setup timezone preferences in your user account.

Time Position Orientation Groundspeed Altitude Reporting Facility
EDT Latitude Longitude Course Direction KTS MPH feet Rate Location/Type
Wed 12:53:35 PM 36.2500 -78.9842 156° South 95 109 1,900  Level Washington Center
Wed 12:54:48 PM 36.2192 -78.9672 156° South 103 119 2,800 677 Climbing Washington Center
Wed 12:55:48 PM 36.1922 -78.9558 161° South 107 123 3,400 545 Climbing Washington Center
Wed 12:56:49 PM 36.1656 -78.9367 150° Southeast 112 129 3,900 517 Climbing Washington Center
Wed 12:57:44 PM 36.1369 -78.9225 158° South 111 128 4,400 522 Climbing Washington Center
Wed 12:58:44 PM 36.1081 -78.9086 159° South 112 129 4,900 496 Climbing Washington Center
Wed 12:59:45 PM 36.0792 -78.8919 155° Southeast 111 128 5,400 470 Climbing Washington Center
Wed 01:00:39 PM 36.0544 -78.8806 160° South 112 129 5,800 495 Climbing Washington Center
Wed 01:01:34 PM 36.0278 -78.8667 157° South 110 127 6,300 470 Climbing Washington Center
Wed 01:02:34 PM 35.9989 -78.8553 162° South 108 124 6,700 231 Climbing Washington Center
Wed 01:04:00 PM 35.9487 -78.8279 156° South  Level FlightAware Approximate
Wed 01:04:36 PM 35.9353 -78.8217 156° South 129 148 7,000  Level Washington Center
Wed 01:05:48 PM 35.8981 -78.8022 157° South 130 150 7,000  Level Washington Center
Wed 01:06:49 PM 35.8672 -78.7856 156° South 130 150 7,000  Level Washington Center
Wed 01:07:50 PM 35.8239 -78.7686 162° South 133 153 7,000  Level Washington Center
Wed 01:08:56 PM 35.7844 -78.7567 166° South 132 152 7,000  Level Washington Center
Wed 01:09:57 PM 35.7475 -78.7425 163° South 135 155 7,000  Level Washington Center
Wed 01:10:57 PM 35.7103 -78.7256 160° South 137 158 7,000  Level Washington Center
Wed 01:13:00 PM 35.6353 -78.6971 163° South  Level FlightAware Approximate
Wed 01:20:00 PM 35.3792 -78.6010 163° South  Level FlightAware Approximate
Wed 01:21:00 PM 35.3426 -78.5875 163° South  Level FlightAware Approximate
Wed 01:22:00 PM 35.3059 -78.5740 163° South  Level FlightAware Approximate
Wed 01:23:00 PM 35.2693 -78.5605 163° South  Level FlightAware Approximate
Wed 01:24:00 PM 35.2327 -78.5470 163° South  Level FlightAware Approximate
Wed 01:25:00 PM 35.1960 -78.5336 163° South  Level FlightAware Approximate
Wed 01:26:00 PM 35.1594 -78.5201 163° South  Level FlightAware Approximate
Wed 01:27:00 PM 35.1229 -78.5061 162° South  Level FlightAware Approximate
Wed 01:28:00 PM 35.0864 -78.4919 162° South  Level FlightAware Approximate
Wed 01:29:00 PM 35.0500 -78.4777 162° South  Level FlightAware Approximate
Wed 01:30:00 PM 35.0135 -78.4635 162° South  Level FlightAware Approximate
Wed 01:31:00 PM 34.9771 -78.4493 162° South  Level FlightAware Approximate
Wed 01:32:00 PM 34.9406 -78.4352 162° South  Level FlightAware Approximate
Wed 01:33:00 PM 34.9042 -78.4210 162° South  Level FlightAware Approximate
Wed 01:34:00 PM 34.8677 -78.4069 162° South  Level FlightAware Approximate
Wed 01:35:00 PM 34.8311 -78.3934 164° South  Level FlightAware Approximate
Wed 01:36:00 PM 34.7943 -78.3807 164° South  Level FlightAware Approximate
Wed 01:37:00 PM 34.7575 -78.3680 164° South  Level FlightAware Approximate
Wed 01:38:00 PM 34.7207 -78.3553 164° South  Level FlightAware Approximate
Wed 01:39:00 PM 34.6839 -78.3426 164° South  Level FlightAware Approximate
Wed 01:40:00 PM 34.6470 -78.3299 164° South  Level FlightAware Approximate
Wed 01:41:00 PM 34.6102 -78.3173 164° South  Level FlightAware Approximate
Wed 01:42:00 PM 34.5734 -78.3046 164° South  Level FlightAware Approximate
Wed 01:43:00 PM 34.5366 -78.2920 164° South  Level FlightAware Approximate
Wed 01:44:00 PM 34.4998 -78.2794 164° South  Level FlightAware Approximate
Wed 01:45:00 PM 34.4630 -78.2667 164° South  Level FlightAware Approximate
Wed 01:46:00 PM 34.4262 -78.2541 164° South  Level FlightAware Approximate
Wed 01:47:00 PM 34.3894 -78.2415 164° South  Level FlightAware Approximate
Wed 01:48:00 PM 34.3525 -78.2289 164° South  Level FlightAware Approximate
Wed 01:49:00 PM 34.3158 -78.2162 158° South  Level FlightAware Approximate
Wed 01:50:00 PM 34.2804 -78.1985 158° South  Level FlightAware Approximate
Wed 01:51:00 PM 34.2450 -78.1808 158° South  Level FlightAware Approximate
Wed 01:52:00 PM 34.2097 -78.1632 158° South  Level FlightAware Approximate
Wed 01:53:00 PM 34.1738 -78.1474 167° South  Level FlightAware Approximate
Wed 01:54:00 PM 34.1365 -78.1372 167° South  Level FlightAware Approximate
Wed 01:55:00 PM 34.0992 -78.1270 167° South  Level FlightAware Approximate
Wed 01:56:00 PM 34.0619 -78.1169 167° South  Level FlightAware Approximate
Wed 01:57:00 PM 34.0245 -78.1067 167° South  Level FlightAware Approximate
Wed 01:58:00 PM 33.9876 -78.0950 162° South  Level FlightAware Approximate
Wed 01:59:00 PM 33.9513 -78.0805 162° South  Level FlightAware Approximate
Wed 02:00:00 PM 33.9308 -78.0734 162° South  Level Estimated
Wed 02:01:00 PM 33.9308 -78.0734 162° South  Level Estimated
Wed 02:02:00 PM 33.9308 -78.0734 162° South  Level Estimated
Wed 02:03:00 PM 33.9308 -78.0734 162° South  Level Estimated
Wed 02:04:00 PM 33.9308 -78.0734 162° South  Level Estimated

Login

Don't have an account? Register now (free) for customized features, flight alerts, and more!